sensor_id;sensor_type;location;lat;lon;timestamp;P1;durP1;ratioP1;P2;durP2;ratioP2
71856;SDS011;63344;46.980;28.882;2024-03-23T00:54:58;92.20;;;37.45;;
71856;SDS011;63344;46.980;28.882;2024-03-23T00:57:24;100.22;;;41.20;;
71856;SDS011;63344;46.980;28.882;2024-03-23T00:59:52;103.30;;;37.47;;
71856;SDS011;63344;46.980;28.882;2024-03-23T01:02:19;86.90;;;36.47;;
71856;SDS011;63344;46.980;28.882;2024-03-23T01:04:48;92.28;;;37.50;;
71856;SDS011;63344;46.980;28.882;2024-03-23T01:07:19;88.25;;;36.17;;
71856;SDS011;63344;46.980;28.882;2024-03-23T01:09:47;90.85;;;34.97;;
71856;SDS011;63344;46.980;28.882;2024-03-23T01:12:15;80.40;;;32.30;;
71856;SDS011;63344;46.980;28.882;2024-03-23T01:14:42;72.00;;;29.10;;
71856;SDS011;63344;46.980;28.882;2024-03-23T01:17:15;80.47;;;32.05;;
71856;SDS011;63344;46.980;28.882;2024-03-23T01:19:47;69.57;;;28.95;;
71856;SDS011;63344;46.980;28.882;2024-03-23T01:22:17;76.50;;;31.50;;
71856;SDS011;63344;46.980;28.882;2024-03-23T01:24:45;71.40;;;30.08;;
71856;SDS011;63344;46.980;28.882;2024-03-23T01:27:13;79.22;;;30.30;;
71856;SDS011;63344;46.980;28.882;2024-03-23T01:29:41;88.10;;;31.55;;
71856;SDS011;63344;46.980;28.882;2024-03-23T01:32:12;71.25;;;29.65;;
71856;SDS011;63344;46.980;28.882;2024-03-23T01:35:08;69.82;;;28.23;;
71856;SDS011;63344;46.980;28.882;2024-03-23T01:37:36;69.43;;;27.45;;
71856;SDS011;63344;46.980;28.882;2024-03-23T01:40:05;66.57;;;26.70;;
71856;SDS011;63344;46.980;28.882;2024-03-23T01:42:34;65.03;;;27.67;;
71856;SDS011;63344;46.980;28.882;2024-03-23T01:45:03;65.50;;;27.92;;
71856;SDS011;63344;46.980;28.882;2024-03-23T01:47:34;61.60;;;25.60;;
71856;SDS011;63344;46.980;28.882;2024-03-23T01:50:04;61.88;;;25.02;;
71856;SDS011;63344;46.980;28.882;2024-03-23T01:52:34;64.55;;;27.55;;
71856;SDS011;63344;46.980;28.882;2024-03-23T01:55:02;62.38;;;26.83;;
71856;SDS011;63344;46.980;28.882;2024-03-23T01:57:31;68.97;;;30.92;;
71856;SDS011;63344;46.980;28.882;2024-03-23T02:00:02;72.20;;;28.98;;
71856;SDS011;63344;46.980;28.882;2024-03-23T02:02:32;69.30;;;28.77;;
71856;SDS011;63344;46.980;28.882;2024-03-23T02:05:02;83.63;;;32.13;;
71856;SDS011;63344;46.980;28.882;2024-03-23T02:07:30;77.88;;;29.63;;
71856;SDS011;63344;46.980;28.882;2024-03-23T02:09:59;77.03;;;30.25;;
71856;SDS011;63344;46.980;28.882;2024-03-23T02:12:45;76.25;;;29.95;;
71856;SDS011;63344;46.980;28.882;2024-03-23T02:15:21;71.13;;;30.27;;
71856;SDS011;63344;46.980;28.882;2024-03-23T02:17:50;69.95;;;27.55;;
71856;SDS011;63344;46.980;28.882;2024-03-23T02:20:22;74.85;;;30.60;;
71856;SDS011;63344;46.980;28.882;2024-03-23T02:22:54;69.00;;;27.05;;
71856;SDS011;63344;46.980;28.882;2024-03-23T02:25:25;66.68;;;27.58;;
71856;SDS011;63344;46.980;28.882;2024-03-23T02:28:00;70.47;;;29.30;;
71856;SDS011;63344;46.980;28.882;2024-03-23T02:30:30;80.85;;;29.80;;
71856;SDS011;63344;46.980;28.882;2024-03-23T02:33:00;65.68;;;28.33;;
71856;SDS011;63344;46.980;28.882;2024-03-23T02:35:47;67.65;;;26.67;;
71856;SDS011;63344;46.980;28.882;2024-03-23T02:38:15;66.88;;;25.70;;
71856;SDS011;63344;46.980;28.882;2024-03-23T02:40:50;57.75;;;23.55;;
71856;SDS011;63344;46.980;28.882;2024-03-23T02:43:17;64.85;;;25.42;;
71856;SDS011;63344;46.980;28.882;2024-03-23T02:45:48;61.90;;;25.73;;
71856;SDS011;63344;46.980;28.882;2024-03-23T02:48:14;64.03;;;26.58;;
71856;SDS011;63344;46.980;28.882;2024-03-23T02:50:49;49.83;;;21.35;;
71856;SDS011;63344;46.980;28.882;2024-03-23T02:53:19;59.40;;;25.35;;
71856;SDS011;63344;46.980;28.882;2024-03-23T02:55:46;66.63;;;25.30;;
71856;SDS011;63344;46.980;28.882;2024-03-23T02:58:14;56.97;;;22.98;;
71856;SDS011;63344;46.980;28.882;2024-03-23T03:00:43;69.00;;;27.13;;
71856;SDS011;63344;46.980;28.882;2024-03-23T03:03:12;61.00;;;24.50;;
71856;SDS011;63344;46.980;28.882;2024-03-23T03:05:41;56.17;;;23.48;;
71856;SDS011;63344;46.980;28.882;2024-03-23T03:08:10;60.30;;;25.13;;
71856;SDS011;63344;46.980;28.882;2024-03-23T03:10:38;61.80;;;25.38;;
71856;SDS011;63344;46.980;28.882;2024-03-23T03:13:19;62.67;;;24.55;;
71856;SDS011;63344;46.980;28.882;2024-03-23T03:15:50;62.58;;;25.33;;
71856;SDS011;63344;46.980;28.882;2024-03-23T03:18:16;59.38;;;25.77;;
71856;SDS011;63344;46.980;28.882;2024-03-23T03:20:49;59.92;;;25.52;;
71856;SDS011;63344;46.980;28.882;2024-03-23T03:23:17;56.72;;;22.35;;
71856;SDS011;63344;46.980;28.882;2024-03-23T03:25:56;59.58;;;24.35;;
71856;SDS011;63344;46.980;28.882;2024-03-23T03:28:24;65.88;;;22.05;;
71856;SDS011;63344;46.980;28.882;2024-03-23T03:30:55;47.17;;;19.45;;
71856;SDS011;63344;46.980;28.882;2024-03-23T03:35:55;54.65;;;20.50;;
71856;SDS011;63344;46.980;28.882;2024-03-23T03:38:27;49.50;;;18.83;;
71856;SDS011;63344;46.980;28.882;2024-03-23T03:40:58;55.88;;;20.98;;
71856;SDS011;63344;46.980;28.882;2024-03-23T03:43:25;50.38;;;22.33;;
71856;SDS011;63344;46.980;28.882;2024-03-23T03:45:53;51.25;;;20.73;;
71856;SDS011;63344;46.980;28.882;2024-03-23T03:48:22;48.35;;;21.33;;
71856;SDS011;63344;46.980;28.882;2024-03-23T03:50:49;43.10;;;18.58;;
71856;SDS011;63344;46.980;28.882;2024-03-23T03:53:24;53.22;;;18.88;;
71856;SDS011;63344;46.980;28.882;2024-03-23T03:55:54;38.03;;;15.98;;
71856;SDS011;63344;46.980;28.882;2024-03-23T03:58:29;40.55;;;16.23;;
71856;SDS011;63344;46.980;28.882;2024-03-23T04:01:01;38.42;;;16.83;;
71856;SDS011;63344;46.980;28.882;2024-03-23T04:03:35;41.13;;;17.17;;
71856;SDS011;63344;46.980;28.882;2024-03-23T04:06:18;41.67;;;16.45;;
71856;SDS011;63344;46.980;28.882;2024-03-23T04:09:11;35.88;;;12.60;;
71856;SDS011;63344;46.980;28.882;2024-03-23T04:11:39;30.65;;;12.23;;
71856;SDS011;63344;46.980;28.882;2024-03-23T04:14:13;35.70;;;12.52;;
71856;SDS011;63344;46.980;28.882;2024-03-23T04:17:00;33.42;;;12.93;;
71856;SDS011;63344;46.980;28.882;2024-03-23T04:19:32;29.33;;;11.48;;
71856;SDS011;63344;46.980;28.882;2024-03-23T04:22:06;46.33;;;14.77;;
71856;SDS011;63344;46.980;28.882;2024-03-23T04:24:57;33.88;;;12.93;;
71856;SDS011;63344;46.980;28.882;2024-03-23T04:27:50;32.25;;;12.75;;
71856;SDS011;63344;46.980;28.882;2024-03-23T04:30:17;31.20;;;12.52;;
71856;SDS011;63344;46.980;28.882;2024-03-23T04:33:03;40.47;;;14.75;;
71856;SDS011;63344;46.980;28.882;2024-03-23T04:35:51;45.53;;;15.48;;
71856;SDS011;63344;46.980;28.882;2024-03-23T04:39:04;29.23;;;13.43;;
71856;SDS011;63344;46.980;28.882;2024-03-23T04:42:07;30.70;;;13.73;;
71856;SDS011;63344;46.980;28.882;2024-03-23T04:44:43;30.05;;;11.90;;
71856;SDS011;63344;46.980;28.882;2024-03-23T04:47:14;27.15;;;11.60;;
71856;SDS011;63344;46.980;28.882;2024-03-23T04:49:56;26.25;;;11.32;;
71856;SDS011;63344;46.980;28.882;2024-03-23T04:52:30;22.08;;;10.27;;
71856;SDS011;63344;46.980;28.882;2024-03-23T04:55:09;27.00;;;11.60;;
71856;SDS011;63344;46.980;28.882;2024-03-23T04:57:47;31.80;;;14.10;;
71856;SDS011;63344;46.980;28.882;2024-03-23T05:00:22;29.88;;;12.02;;
71856;SDS011;63344;46.980;28.882;2024-03-23T05:02:59;30.30;;;13.82;;
71856;SDS011;63344;46.980;28.882;2024-03-23T05:05:57;28.35;;;12.48;;
71856;SDS011;63344;46.980;28.882;2024-03-23T05:16:47;27.98;;;12.05;;
71856;SDS011;63344;46.980;28.882;2024-03-23T05:23:17;27.23;;;11.75;;
71856;SDS011;63344;46.980;28.882;2024-03-23T05:26:25;26.33;;;12.75;;
71856;SDS011;63344;46.980;28.882;2024-03-23T05:29:20;32.35;;;14.93;;
71856;SDS011;63344;46.980;28.882;2024-03-23T05:36:07;44.20;;;19.85;;
71856;SDS011;63344;46.980;28.882;2024-03-23T05:52:26;54.58;;;23.75;;
71856;SDS011;63344;46.980;28.882;2024-03-23T05:55:51;58.30;;;26.40;;
71856;SDS011;63344;46.980;28.882;2024-03-23T05:58:53;54.28;;;25.02;;
71856;SDS011;63344;46.980;28.882;2024-03-23T06:10:58;51.95;;;22.90;;
71856;SDS011;63344;46.980;28.882;2024-03-23T06:14:10;48.10;;;23.95;;
71856;SDS011;63344;46.980;28.882;2024-03-23T06:17:41;43.10;;;21.23;;
71856;SDS011;63344;46.980;28.882;2024-03-23T06:21:05;45.78;;;22.40;;
71856;SDS011;63344;46.980;28.882;2024-03-23T06:36:42;54.80;;;25.75;;
71856;SDS011;63344;46.980;28.882;2024-03-23T06:39:40;48.15;;;23.48;;
71856;SDS011;63344;46.980;28.882;2024-03-23T06:49:51;40.70;;;20.05;;
71856;SDS011;63344;46.980;28.882;2024-03-23T06:52:30;51.10;;;20.00;;
71856;SDS011;63344;46.980;28.882;2024-03-23T06:55:34;37.08;;;19.15;;
71856;SDS011;63344;46.980;28.882;2024-03-23T06:58:10;39.30;;;17.48;;
71856;SDS011;63344;46.980;28.882;2024-03-23T07:01:08;14.32;;;6.30;;
71856;SDS011;63344;46.980;28.882;2024-03-23T07:18:59;14.15;;;6.00;;
71856;SDS011;63344;46.980;28.882;2024-03-23T07:22:25;12.70;;;5.82;;
71856;SDS011;63344;46.980;28.882;2024-03-23T07:29:11;12.52;;;5.18;;
71856;SDS011;63344;46.980;28.882;2024-03-23T07:36:27;13.02;;;6.85;;
71856;SDS011;63344;46.980;28.882;2024-03-23T07:39:50;12.75;;;6.95;;
71856;SDS011;63344;46.980;28.882;2024-03-23T07:43:07;11.20;;;6.05;;
71856;SDS011;63344;46.980;28.882;2024-03-23T07:46:15;11.88;;;6.30;;
71856;SDS011;63344;46.980;28.882;2024-03-23T07:53:30;14.15;;;6.50;;
71856;SDS011;63344;46.980;28.882;2024-03-23T08:22:38;12.77;;;6.45;;
71856;SDS011;63344;46.980;28.882;2024-03-23T08:34:03;11.10;;;6.03;;
71856;SDS011;63344;46.980;28.882;2024-03-23T08:50:15;13.63;;;7.60;;
71856;SDS011;63344;46.980;28.882;2024-03-23T09:43:25;9.25;;;5.90;;
71856;SDS011;63344;46.980;28.882;2024-03-23T09:46:37;8.73;;;6.45;;
71856;SDS011;63344;46.980;28.882;2024-03-23T09:50:00;11.02;;;6.82;;
71856;SDS011;63344;46.980;28.882;2024-03-23T13:34:09;9.20;;;4.78;;
71856;SDS011;63344;46.980;28.882;2024-03-23T13:37:54;5.45;;;3.85;;
71856;SDS011;63344;46.980;28.882;2024-03-23T15:25:08;7.22;;;3.95;;
71856;SDS011;63344;46.980;28.882;2024-03-23T15:27:37;6.93;;;4.18;;
71856;SDS011;63344;46.980;28.882;2024-03-23T15:30:03;8.30;;;4.38;;
71856;SDS011;63344;46.980;28.882;2024-03-23T15:32:35;8.20;;;4.32;;
71856;SDS011;63344;46.980;28.882;2024-03-23T15:35:04;6.60;;;3.53;;
71856;SDS011;63344;46.980;28.882;2024-03-23T15:37:34;8.10;;;4.30;;
71856;SDS011;63344;46.980;28.882;2024-03-23T15:40:00;7.20;;;4.07;;
71856;SDS011;63344;46.980;28.882;2024-03-23T15:42:28;6.80;;;4.30;;
71856;SDS011;63344;46.980;28.882;2024-03-23T15:44:55;11.10;;;5.00;;
71856;SDS011;63344;46.980;28.882;2024-03-23T15:47:27;7.50;;;4.10;;
71856;SDS011;63344;46.980;28.882;2024-03-23T15:49:54;8.43;;;4.95;;
71856;SDS011;63344;46.980;28.882;2024-03-23T15:52:22;9.23;;;4.50;;
71856;SDS011;63344;46.980;28.882;2024-03-23T15:54:51;8.93;;;4.53;;
71856;SDS011;63344;46.980;28.882;2024-03-23T15:57:18;9.05;;;4.55;;
71856;SDS011;63344;46.980;28.882;2024-03-23T15:59:49;8.35;;;4.70;;
71856;SDS011;63344;46.980;28.882;2024-03-23T16:02:17;9.88;;;4.60;;
71856;SDS011;63344;46.980;28.882;2024-03-23T16:04:45;9.75;;;4.25;;
71856;SDS011;63344;46.980;28.882;2024-03-23T16:07:15;7.45;;;4.72;;
71856;SDS011;63344;46.980;28.882;2024-03-23T16:09:43;10.95;;;4.25;;
71856;SDS011;63344;46.980;28.882;2024-03-23T16:12:10;7.72;;;4.47;;
71856;SDS011;63344;46.980;28.882;2024-03-23T16:14:37;10.88;;;4.32;;
71856;SDS011;63344;46.980;28.882;2024-03-23T16:17:04;6.93;;;3.88;;
71856;SDS011;63344;46.980;28.882;2024-03-23T16:19:30;8.95;;;4.43;;
71856;SDS011;63344;46.980;28.882;2024-03-23T16:21:57;8.65;;;4.40;;
71856;SDS011;63344;46.980;28.882;2024-03-23T16:24:25;10.85;;;4.32;;
71856;SDS011;63344;46.980;28.882;2024-03-23T16:26:52;9.77;;;4.03;;
71856;SDS011;63344;46.980;28.882;2024-03-23T16:29:19;9.50;;;5.85;;
71856;SDS011;63344;46.980;28.882;2024-03-23T16:31:46;12.10;;;4.80;;
71856;SDS011;63344;46.980;28.882;2024-03-23T16:34:12;8.38;;;4.68;;
71856;SDS011;63344;46.980;28.882;2024-03-23T16:36:43;7.95;;;4.15;;
71856;SDS011;63344;46.980;28.882;2024-03-23T16:39:09;12.90;;;5.18;;
71856;SDS011;63344;46.980;28.882;2024-03-23T16:41:36;8.23;;;4.43;;
71856;SDS011;63344;46.980;28.882;2024-03-23T16:44:04;12.20;;;5.97;;
71856;SDS011;63344;46.980;28.882;2024-03-23T16:46:30;10.75;;;4.70;;
71856;SDS011;63344;46.980;28.882;2024-03-23T16:48:59;9.98;;;5.00;;
71856;SDS011;63344;46.980;28.882;2024-03-23T16:51:28;12.15;;;5.38;;
71856;SDS011;63344;46.980;28.882;2024-03-23T16:53:54;12.82;;;5.43;;
71856;SDS011;63344;46.980;28.882;2024-03-23T16:56:33;10.60;;;5.43;;
71856;SDS011;63344;46.980;28.882;2024-03-23T16:59:04;11.27;;;5.38;;
71856;SDS011;63344;46.980;28.882;2024-03-23T17:01:34;11.05;;;5.65;;
71856;SDS011;63344;46.980;28.882;2024-03-23T17:04:00;12.75;;;5.95;;
71856;SDS011;63344;46.980;28.882;2024-03-23T17:06:27;11.38;;;6.25;;
71856;SDS011;63344;46.980;28.882;2024-03-23T17:08:53;13.48;;;6.13;;
71856;SDS011;63344;46.980;28.882;2024-03-23T17:11:21;13.18;;;6.22;;
71856;SDS011;63344;46.980;28.882;2024-03-23T17:13:49;13.50;;;5.60;;
71856;SDS011;63344;46.980;28.882;2024-03-23T17:16:18;12.23;;;6.25;;
71856;SDS011;63344;46.980;28.882;2024-03-23T17:18:44;10.07;;;5.53;;
71856;SDS011;63344;46.980;28.882;2024-03-23T17:21:11;13.15;;;6.63;;
71856;SDS011;63344;46.980;28.882;2024-03-23T17:23:37;13.75;;;6.22;;
71856;SDS011;63344;46.980;28.882;2024-03-23T17:26:04;11.73;;;5.55;;
71856;SDS011;63344;46.980;28.882;2024-03-23T17:28:31;10.73;;;6.63;;
71856;SDS011;63344;46.980;28.882;2024-03-23T17:31:01;11.63;;;5.68;;
71856;SDS011;63344;46.980;28.882;2024-03-23T17:33:28;14.82;;;6.30;;
71856;SDS011;63344;46.980;28.882;2024-03-23T17:36:02;15.13;;;6.43;;
71856;SDS011;63344;46.980;28.882;2024-03-23T17:38:30;11.15;;;6.07;;
71856;SDS011;63344;46.980;28.882;2024-03-23T17:40:56;12.38;;;6.88;;
71856;SDS011;63344;46.980;28.882;2024-03-23T17:43:23;15.48;;;6.38;;
71856;SDS011;63344;46.980;28.882;2024-03-23T17:46:08;13.88;;;7.15;;
71856;SDS011;63344;46.980;28.882;2024-03-23T18:22:31;12.68;;;4.88;;
71856;SDS011;63344;46.980;28.882;2024-03-23T19:46:56;21.67;;;9.57;;
71856;SDS011;63344;46.980;28.882;2024-03-23T20:07:38;19.23;;;8.82;;
71856;SDS011;63344;46.980;28.882;2024-03-23T20:12:16;13.38;;;6.82;;
71856;SDS011;63344;46.980;28.882;2024-03-23T20:37:18;13.35;;;6.45;;
71856;SDS011;63344;46.980;28.882;2024-03-23T20:41:07;17.25;;;6.80;;
71856;SDS011;63344;46.980;28.882;2024-03-23T21:02:36;14.25;;;5.85;;
71856;SDS011;63344;46.980;28.882;2024-03-23T21:05:46;12.82;;;5.57;;
71856;SDS011;63344;46.980;28.882;2024-03-23T21:08:44;10.75;;;5.15;;
71856;SDS011;63344;46.980;28.882;2024-03-23T21:11:31;8.13;;;3.90;;
71856;SDS011;63344;46.980;28.882;2024-03-23T21:18:06;13.88;;;6.10;;
71856;SDS011;63344;46.980;28.882;2024-03-23T21:32:36;10.95;;;6.13;;
71856;SDS011;63344;46.980;28.882;2024-03-23T21:38:42;12.68;;;6.07;;
71856;SDS011;63344;46.980;28.882;2024-03-23T21:41:27;15.57;;;6.05;;
71856;SDS011;63344;46.980;28.882;2024-03-23T21:44:20;15.00;;;5.90;;
71856;SDS011;63344;46.980;28.882;2024-03-23T21:47:11;12.55;;;5.30;;
71856;SDS011;63344;46.980;28.882;2024-03-23T21:56:19;10.27;;;5.38;;
71856;SDS011;63344;46.980;28.882;2024-03-23T22:02:17;14.15;;;6.78;;
71856;SDS011;63344;46.980;28.882;2024-03-23T22:05:10;14.45;;;6.15;;
71856;SDS011;63344;46.980;28.882;2024-03-23T22:08:01;13.93;;;6.78;;
71856;SDS011;63344;46.980;28.882;2024-03-23T22:10:38;19.92;;;7.50;;
71856;SDS011;63344;46.980;28.882;2024-03-23T22:13:37;20.85;;;7.15;;
71856;SDS011;63344;46.980;28.882;2024-03-23T22:16:22;17.92;;;7.60;;
71856;SDS011;63344;46.980;28.882;2024-03-23T22:19:13;16.60;;;7.47;;
71856;SDS011;63344;46.980;28.882;2024-03-23T22:21:48;12.77;;;5.65;;
71856;SDS011;63344;46.980;28.882;2024-03-23T22:25:07;16.27;;;7.15;;
71856;SDS011;63344;46.980;28.882;2024-03-23T22:34:26;16.40;;;6.85;;
71856;SDS011;63344;46.980;28.882;2024-03-23T22:37:16;12.50;;;6.35;;
71856;SDS011;63344;46.980;28.882;2024-03-23T22:40:08;15.55;;;7.53;;
71856;SDS011;63344;46.980;28.882;2024-03-23T22:46:36;17.52;;;7.80;;
71856;SDS011;63344;46.980;28.882;2024-03-23T22:49:13;14.65;;;6.78;;
71856;SDS011;63344;46.980;28.882;2024-03-23T22:51:51;14.38;;;6.65;;
71856;SDS011;63344;46.980;28.882;2024-03-23T22:54:18;13.38;;;6.35;;
71856;SDS011;63344;46.980;28.882;2024-03-23T22:56:57;15.35;;;7.03;;
71856;SDS011;63344;46.980;28.882;2024-03-23T22:59:44;14.73;;;7.20;;
71856;SDS011;63344;46.980;28.882;2024-03-23T23:09:30;16.35;;;8.32;;
71856;SDS011;63344;46.980;28.882;2024-03-23T23:16:03;13.80;;;7.22;;
71856;SDS011;63344;46.980;28.882;2024-03-23T23:18:34;17.77;;;7.43;;
71856;SDS011;63344;46.980;28.882;2024-03-23T23:21:09;17.58;;;6.85;;
71856;SDS011;63344;46.980;28.882;2024-03-23T23:24:02;19.00;;;7.63;;
71856;SDS011;63344;46.980;28.882;2024-03-23T23:26:34;17.85;;;7.93;;
71856;SDS011;63344;46.980;28.882;2024-03-23T23:29:18;18.90;;;8.43;;
71856;SDS011;63344;46.980;28.882;2024-03-23T23:31:53;18.33;;;7.63;;
71856;SDS011;63344;46.980;28.882;2024-03-23T23:34:29;18.15;;;8.00;;
71856;SDS011;63344;46.980;28.882;2024-03-23T23:40:50;22.90;;;11.43;;
71856;SDS011;63344;46.980;28.882;2024-03-23T23:43:23;28.08;;;11.55;;
71856;SDS011;63344;46.980;28.882;2024-03-23T23:46:22;26.15;;;12.65;;
71856;SDS011;63344;46.980;28.882;2024-03-23T23:49:02;23.58;;;10.55;;
71856;SDS011;63344;46.980;28.882;2024-03-23T23:51:34;24.83;;;10.88;;
71856;SDS011;63344;46.980;28.882;2024-03-23T23:54:14;15.68;;;7.68;;
71856;SDS011;63344;46.980;28.882;2024-03-23T23:56:59;20.00;;;9.23;;
71856;SDS011;63344;46.980;28.882;2024-03-23T23:59:31;19.63;;;8.88;;
